createdAt,value
2018-07-21T00:02:22.265Z,26.74
2018-07-21T00:04:49.746Z,26.77
2018-07-21T00:07:17.218Z,26.76
2018-07-21T00:09:44.619Z,26.72
2018-07-21T00:12:12.069Z,26.72
2018-07-21T00:14:39.549Z,26.76
2018-07-21T00:17:07.626Z,26.72
2018-07-21T00:19:35.045Z,26.71
2018-07-21T00:22:02.510Z,26.70
2018-07-21T00:24:29.968Z,26.70
2018-07-21T00:26:57.470Z,26.67
2018-07-21T00:29:24.889Z,26.58
2018-07-21T00:31:52.354Z,26.60
2018-07-21T00:34:19.786Z,26.60
2018-07-21T00:36:47.261Z,26.63
2018-07-21T00:39:14.714Z,26.65
2018-07-21T00:41:42.165Z,26.66
2018-07-21T00:44:09.617Z,26.63
2018-07-21T00:46:37.089Z,26.63
2018-07-21T00:49:04.550Z,26.64
2018-07-21T00:51:32.001Z,26.61
2018-07-21T00:53:59.434Z,26.61
2018-07-21T00:56:26.970Z,26.61
2018-07-21T00:58:54.354Z,26.59
2018-07-21T01:01:21.835Z,26.59
2018-07-21T01:03:49.303Z,26.54
2018-07-21T01:06:16.722Z,26.52
2018-07-21T01:08:44.222Z,26.49
2018-07-21T01:11:11.703Z,26.49
2018-07-21T01:13:39.254Z,26.49
2018-07-21T01:16:06.825Z,26.49
2018-07-21T01:18:34.221Z,26.50
2018-07-21T01:21:01.704Z,26.48
2018-07-21T01:23:29.023Z,26.50
2018-07-21T01:25:56.506Z,26.58
2018-07-21T01:28:23.934Z,26.55
2018-07-21T01:30:51.421Z,26.55
2018-07-21T01:33:18.866Z,26.55
2018-07-21T01:35:46.334Z,26.52
2018-07-21T01:38:13.792Z,26.52
2018-07-21T01:40:41.235Z,26.51
2018-07-21T01:43:09.258Z,26.52
2018-07-21T01:45:37.281Z,26.52
2018-07-21T01:48:05.007Z,26.51
2018-07-21T01:50:32.493Z,26.50
2018-07-21T01:52:59.966Z,26.48
2018-07-21T01:55:27.426Z,26.49
2018-07-21T01:57:54.873Z,26.48
2018-07-21T02:00:22.362Z,26.50
2018-07-21T02:02:49.843Z,26.43
2018-07-21T02:05:17.255Z,26.41
2018-07-21T02:07:44.685Z,26.44
2018-07-21T02:10:12.167Z,26.41
2018-07-21T02:12:39.646Z,26.39
2018-07-21T02:15:07.099Z,26.37
2018-07-21T02:17:34.582Z,26.36
2018-07-21T02:20:02.395Z,26.36
2018-07-21T02:22:30.920Z,26.40
2018-07-21T02:24:58.346Z,26.40
2018-07-21T02:27:25.809Z,26.37
2018-07-21T02:29:53.174Z,26.39
2018-07-21T02:32:20.610Z,26.34
2018-07-21T02:34:48.074Z,26.40
2018-07-21T02:37:15.533Z,26.36
2018-07-21T02:39:42.991Z,26.38
2018-07-21T02:42:10.435Z,26.36
2018-07-21T02:44:37.894Z,26.34
2018-07-21T02:47:05.383Z,26.36
2018-07-21T02:49:32.818Z,26.34
2018-07-21T02:52:00.261Z,26.35
2018-07-21T02:54:27.725Z,26.28
2018-07-21T02:56:55.167Z,26.27
2018-07-21T02:59:22.631Z,26.31
2018-07-21T03:01:50.091Z,26.33
2018-07-21T03:04:17.568Z,26.30
2018-07-21T03:06:44.991Z,26.30
2018-07-21T03:09:12.476Z,26.26
2018-07-21T03:11:39.915Z,26.29
2018-07-21T03:14:07.474Z,26.28
2018-07-21T03:16:34.875Z,26.28
2018-07-21T03:19:02.702Z,26.28
2018-07-21T03:21:30.198Z,26.26
2018-07-21T03:23:57.659Z,26.29
2018-07-21T03:26:25.086Z,26.29
2018-07-21T03:28:52.640Z,26.28
2018-07-21T03:31:19.973Z,26.22
2018-07-21T03:33:47.439Z,26.24
2018-07-21T03:36:14.903Z,26.26
2018-07-21T03:38:42.357Z,26.23
2018-07-21T03:41:09.829Z,26.21
2018-07-21T03:43:37.286Z,26.21
2018-07-21T03:46:05.262Z,26.23
2018-07-21T03:48:32.613Z,26.22
2018-07-21T03:51:00.070Z,26.23
2018-07-21T03:53:27.527Z,26.22
2018-07-21T03:55:54.977Z,26.24
2018-07-21T03:58:22.419Z,26.22
2018-07-21T04:00:49.897Z,26.19
2018-07-21T04:03:17.374Z,26.19
2018-07-21T04:05:44.803Z,26.20
2018-07-21T04:08:12.279Z,26.21
2018-07-21T04:10:39.749Z,26.21
2018-07-21T04:13:07.171Z,26.17
2018-07-21T04:15:34.656Z,26.16
2018-07-21T04:18:03.128Z,26.16
2018-07-21T04:20:31.603Z,26.09
2018-07-21T04:22:59.075Z,26.17
2018-07-21T04:25:26.514Z,26.16
2018-07-21T04:27:54.015Z,26.13
2018-07-21T04:30:21.432Z,26.11
2018-07-21T04:32:48.882Z,26.09
2018-07-21T04:35:16.334Z,26.13
2018-07-21T04:37:43.815Z,26.15
2018-07-21T04:40:11.257Z,26.14
2018-07-21T04:42:38.722Z,26.12
2018-07-21T04:45:06.224Z,26.13
2018-07-21T04:47:33.643Z,26.13
2018-07-21T04:50:01.113Z,26.10
2018-07-21T04:52:28.519Z,26.09
2018-07-21T04:54:56.007Z,26.05
2018-07-21T04:57:23.456Z,26.05
2018-07-21T04:59:50.894Z,26.06
2018-07-21T05:02:18.441Z,26.10
2018-07-21T05:04:45.872Z,26.03
2018-07-21T05:07:13.282Z,26.03
2018-07-21T05:10:43.711Z,26.06
2018-07-21T05:13:11.063Z,26.01
2018-07-21T05:15:38.544Z,26.06
2018-07-21T05:18:06.007Z,26.02
2018-07-21T05:20:33.488Z,26.04
2018-07-21T05:23:00.885Z,26.02
2018-07-21T05:25:28.355Z,26.05
2018-07-21T05:27:55.818Z,26.02
2018-07-21T05:30:23.298Z,26.00
2018-07-21T05:32:50.723Z,25.94
2018-07-21T05:35:18.218Z,25.89
2018-07-21T05:37:45.642Z,25.93
2018-07-21T05:40:13.079Z,25.90
2018-07-21T05:42:40.579Z,25.93
2018-07-21T05:45:08.225Z,25.93
2018-07-21T05:47:35.674Z,25.92
2018-07-21T05:50:03.941Z,25.92
2018-07-21T05:52:31.410Z,25.93
2018-07-21T05:54:58.922Z,25.96
2018-07-21T05:57:26.351Z,25.97
2018-07-21T05:59:53.770Z,25.95
2018-07-21T06:02:21.262Z,25.95
2018-07-21T06:04:48.750Z,25.93
2018-07-21T06:07:16.157Z,25.88
2018-07-21T06:09:43.639Z,25.92
2018-07-21T06:12:11.045Z,25.93
2018-07-21T06:14:38.521Z,25.95
2018-07-21T06:17:06.066Z,25.89
2018-07-21T06:19:33.436Z,25.94
2018-07-21T06:22:00.898Z,25.93
2018-07-21T06:24:28.352Z,25.92
2018-07-21T06:26:55.824Z,25.91
2018-07-21T06:29:23.366Z,25.89
2018-07-21T06:31:50.708Z,25.90
2018-07-21T06:34:18.218Z,25.91
2018-07-21T06:36:45.638Z,25.93
2018-07-21T06:39:13.136Z,25.91
2018-07-21T06:41:40.537Z,25.93
2018-07-21T06:44:08.023Z,25.91
2018-07-21T06:46:35.485Z,25.90
2018-07-21T06:49:03.819Z,25.88
2018-07-21T06:51:31.214Z,25.93
2018-07-21T06:53:58.667Z,25.91
2018-07-21T06:56:26.150Z,25.91
2018-07-21T06:58:53.605Z,25.96
2018-07-21T07:01:21.029Z,25.92
2018-07-21T07:03:48.477Z,25.90
2018-07-21T07:06:15.954Z,25.90
2018-07-21T07:08:43.375Z,25.93
2018-07-21T07:11:10.870Z,25.93
2018-07-21T07:13:38.304Z,25.90
2018-07-21T07:16:05.799Z,25.88
2018-07-21T07:18:33.214Z,25.88
2018-07-21T07:21:00.758Z,25.89
2018-07-21T07:23:28.137Z,25.95
2018-07-21T07:25:55.599Z,25.93
2018-07-21T07:28:23.086Z,25.95
2018-07-21T07:30:50.545Z,25.95
2018-07-21T07:33:17.971Z,25.95
2018-07-21T07:35:45.433Z,25.96
2018-07-21T07:39:37.450Z,25.96
2018-07-21T07:42:05.022Z,25.99
2018-07-21T07:51:30.435Z,25.89
2018-07-21T07:53:57.863Z,25.93
2018-07-21T07:56:25.294Z,25.96
2018-07-21T07:58:52.742Z,25.95
2018-07-21T08:01:20.283Z,25.95
2018-07-21T08:03:47.673Z,25.95
2018-07-21T08:06:15.130Z,25.96
2018-07-21T08:08:42.585Z,25.95
2018-07-21T08:11:10.411Z,25.95
2018-07-21T08:13:37.906Z,25.99
2018-07-21T08:16:05.408Z,25.96
2018-07-21T08:18:32.810Z,25.88
2018-07-21T08:21:00.270Z,25.96
2018-07-21T08:23:27.783Z,25.91
2018-07-21T08:25:55.216Z,25.87
2018-07-21T08:28:22.670Z,25.89
2018-07-21T08:30:50.106Z,25.88
2018-07-21T08:33:17.602Z,25.88
2018-07-21T08:38:30.331Z,25.96
2018-07-21T08:40:57.758Z,25.95
2018-07-21T08:43:25.204Z,25.99
2018-07-21T08:45:52.665Z,25.95
2018-07-21T08:48:20.122Z,25.86
2018-07-21T08:50:47.600Z,25.81
2018-07-21T08:53:15.031Z,25.79
2018-07-21T08:55:42.535Z,25.73
2018-07-21T08:58:09.949Z,25.75
2018-07-21T09:00:37.411Z,25.85
2018-07-21T09:03:04.918Z,25.78
2018-07-21T09:05:32.333Z,25.83
2018-07-21T09:07:59.781Z,25.73
2018-07-21T09:10:27.229Z,25.80
2018-07-21T09:12:54.709Z,25.79
2018-07-21T09:15:22.165Z,25.84
2018-07-21T09:17:49.635Z,25.83
2018-07-21T09:20:17.089Z,25.84
2018-07-21T09:22:44.581Z,25.84
2018-07-21T09:25:11.975Z,25.79
2018-07-21T09:27:39.448Z,25.76
2018-07-21T09:30:06.883Z,25.81
2018-07-21T09:32:34.351Z,25.82
2018-07-21T09:35:01.834Z,25.82
2018-07-21T09:37:29.274Z,25.82
2018-07-21T09:39:56.746Z,25.83
2018-07-21T09:42:24.290Z,25.81
2018-07-21T09:44:51.729Z,25.87
2018-07-21T09:47:19.210Z,25.85
2018-07-21T09:49:46.649Z,25.86
2018-07-21T09:52:14.117Z,25.87
2018-07-21T09:54:41.598Z,25.88
2018-07-21T09:57:09.022Z,25.90
2018-07-21T09:59:36.494Z,25.89
2018-07-21T10:02:03.963Z,25.91
2018-07-21T10:04:31.390Z,25.89
2018-07-21T10:06:58.872Z,25.92
2018-07-21T10:09:26.289Z,25.94
2018-07-21T10:11:53.772Z,25.94
2018-07-21T10:14:21.223Z,25.94
2018-07-21T10:16:48.742Z,25.90
2018-07-21T10:19:16.147Z,25.93
2018-07-21T10:21:43.658Z,25.94
2018-07-21T10:24:11.063Z,25.98
2018-07-21T10:26:38.491Z,25.98
2018-07-21T10:29:06.116Z,25.97
2018-07-21T10:31:33.642Z,25.98
2018-07-21T10:34:01.095Z,25.95
2018-07-21T10:36:28.526Z,25.96
2018-07-21T10:38:56.007Z,25.96
2018-07-21T10:41:23.467Z,25.96
2018-07-21T10:43:50.890Z,25.98
2018-07-21T10:46:18.396Z,25.99
2018-07-21T10:48:45.724Z,25.99
2018-07-21T10:51:13.197Z,25.99
2018-07-21T10:53:40.625Z,26.00
2018-07-21T10:56:08.102Z,25.99
2018-07-21T10:58:35.575Z,26.01
2018-07-21T11:01:03.001Z,26.01
2018-07-21T11:03:30.450Z,26.01
2018-07-21T11:05:57.930Z,26.02
2018-07-21T11:08:25.406Z,26.02
2018-07-21T11:10:52.895Z,26.01
2018-07-21T11:13:20.310Z,26.02
2018-07-21T11:15:47.747Z,26.04
2018-07-21T11:18:15.230Z,26.06
2018-07-21T11:20:42.677Z,26.06
2018-07-21T11:23:10.129Z,26.08
2018-07-21T11:25:37.588Z,26.08
2018-07-21T11:28:05.050Z,26.08
2018-07-21T11:30:32.514Z,26.11
2018-07-21T11:32:59.954Z,26.10
2018-07-21T11:35:27.539Z,26.11
2018-07-21T11:37:54.861Z,26.11
2018-07-21T11:40:22.319Z,26.13
2018-07-21T11:42:49.846Z,26.13
2018-07-21T11:45:17.255Z,26.14
2018-07-21T11:47:44.738Z,26.13
2018-07-21T11:50:12.146Z,26.14
2018-07-21T11:52:39.651Z,26.15
2018-07-21T11:55:07.082Z,26.17
2018-07-21T11:57:34.526Z,26.16
2018-07-21T12:00:01.995Z,26.18
2018-07-21T12:02:29.457Z,26.20
2018-07-21T12:04:56.902Z,26.19
2018-07-21T12:07:24.345Z,26.19
2018-07-21T12:09:51.834Z,26.23
2018-07-21T12:12:19.262Z,26.23
2018-07-21T12:14:46.738Z,26.23
2018-07-21T12:17:14.166Z,26.24
2018-07-21T12:19:41.641Z,26.26
2018-07-21T12:22:09.099Z,26.27
2018-07-21T12:24:36.561Z,26.27
2018-07-21T12:27:04.014Z,26.29
2018-07-21T12:29:31.463Z,26.31
2018-07-21T12:31:58.939Z,26.32
2018-07-21T12:34:26.368Z,26.32
2018-07-21T12:36:53.829Z,26.32
2018-07-21T12:39:21.302Z,26.33
2018-07-21T12:41:48.741Z,26.35
2018-07-21T12:44:16.222Z,26.35
2018-07-21T12:46:43.677Z,26.34
2018-07-21T12:49:12.811Z,26.38
2018-07-21T12:51:40.222Z,26.42
2018-07-21T12:54:07.685Z,26.43
2018-07-21T12:56:35.134Z,26.49
2018-07-21T12:59:02.602Z,26.59
2018-07-21T13:01:30.052Z,26.61
2018-07-21T13:03:57.519Z,26.61
2018-07-21T13:06:24.982Z,26.64
2018-07-21T13:08:52.457Z,26.62
2018-07-21T13:11:19.912Z,26.62
2018-07-21T13:13:47.330Z,26.66
2018-07-21T13:16:14.777Z,26.68
2018-07-21T13:18:42.333Z,26.67
2018-07-21T13:21:09.710Z,26.67
2018-07-21T13:23:37.187Z,26.67
2018-07-21T13:26:04.639Z,26.68
2018-07-21T13:28:32.094Z,26.67
2018-07-21T13:30:59.559Z,26.70
2018-07-21T13:33:27.196Z,26.69
2018-07-21T13:35:54.674Z,26.67
2018-07-21T13:38:22.135Z,26.72
2018-07-21T13:40:49.609Z,26.71
2018-07-21T13:43:17.025Z,26.77
2018-07-21T13:45:44.507Z,26.78
2018-07-21T13:48:12.049Z,26.75
2018-07-21T13:50:39.418Z,26.78
2018-07-21T13:53:06.902Z,26.77
2018-07-21T13:55:34.446Z,26.78
2018-07-21T13:58:01.909Z,26.83
2018-07-21T14:00:29.362Z,26.74
2018-07-21T14:02:56.810Z,26.70
2018-07-21T14:05:24.263Z,26.71
2018-07-21T14:07:51.733Z,26.71
2018-07-21T14:10:19.209Z,26.77
2018-07-21T14:12:46.646Z,26.82
2018-07-21T14:15:14.106Z,26.85
2018-07-21T14:17:41.558Z,26.90
2018-07-21T14:20:09.111Z,26.89
2018-07-21T14:22:36.433Z,26.91
2018-07-21T14:25:03.905Z,26.89
2018-07-21T14:27:31.360Z,26.87
2018-07-21T14:29:58.936Z,26.91
2018-07-21T14:32:26.278Z,26.87
2018-07-21T14:34:54.059Z,26.84
2018-07-21T14:37:21.419Z,26.83
2018-07-21T14:39:48.896Z,26.83
2018-07-21T14:42:16.338Z,26.81
2018-07-21T14:44:43.782Z,26.81
2018-07-21T14:47:11.241Z,26.85
2018-07-21T14:49:38.803Z,26.81
2018-07-21T14:52:07.454Z,26.73
2018-07-21T14:54:35.086Z,26.67
2018-07-21T14:57:03.359Z,26.69
2018-07-21T14:59:30.798Z,26.65
2018-07-21T15:01:58.280Z,26.64
2018-07-21T15:04:25.736Z,26.64
2018-07-21T15:06:53.250Z,26.70
2018-07-21T15:09:20.616Z,26.68
2018-07-21T15:11:48.338Z,26.61
2018-07-21T15:14:16.021Z,26.60
2018-07-21T15:16:43.410Z,26.60
2018-07-21T15:19:10.854Z,26.58
2018-07-21T15:21:38.308Z,26.64
2018-07-21T15:24:05.895Z,26.66
2018-07-21T15:26:33.402Z,26.63
2018-07-21T15:29:01.643Z,26.52
2018-07-21T15:31:29.712Z,26.55
2018-07-21T15:33:57.454Z,26.57
2018-07-21T15:36:25.106Z,26.53
2018-07-21T15:38:55.810Z,26.51
2018-07-21T15:41:23.610Z,26.56
2018-07-21T15:46:17.751Z,26.54
2018-07-21T15:48:45.245Z,26.48
2018-07-21T15:51:12.718Z,26.48
2018-07-21T15:53:40.154Z,26.51
2018-07-21T15:56:08.246Z,26.50
2018-07-21T15:58:35.706Z,26.45
2018-07-21T16:01:03.176Z,26.52
2018-07-21T16:03:30.610Z,26.52
2018-07-21T16:05:59.197Z,26.45
2018-07-21T16:08:26.763Z,26.59
2018-07-21T16:10:56.320Z,26.40
2018-07-21T16:13:24.052Z,26.28
2018-07-21T16:15:51.566Z,26.49
2018-07-21T16:18:19.010Z,26.52
2018-07-21T16:20:46.496Z,26.53
2018-07-21T16:23:13.963Z,26.44
2018-07-21T16:25:41.398Z,26.48
2018-07-21T16:28:08.866Z,26.54
2018-07-21T16:30:36.403Z,26.38
2018-07-21T16:33:03.836Z,26.40
2018-07-21T16:35:31.214Z,26.37
2018-07-21T16:37:58.765Z,26.30
2018-07-21T16:40:26.138Z,26.29
2018-07-21T16:42:53.601Z,26.25
2018-07-21T16:45:22.275Z,26.29
2018-07-21T16:47:50.354Z,26.30
2018-07-21T16:50:17.848Z,26.30
2018-07-21T16:52:45.278Z,26.32
2018-07-21T16:55:12.731Z,26.32
2018-07-21T16:57:41.161Z,26.29
2018-07-21T17:00:08.589Z,26.24
2018-07-21T17:02:36.451Z,26.25
2018-07-21T17:05:04.546Z,26.22
2018-07-21T17:07:31.956Z,26.17
2018-07-21T17:09:59.526Z,26.21
2018-07-21T17:12:27.086Z,26.25
2018-07-21T17:14:54.543Z,26.14
2018-07-21T17:17:22.266Z,26.14
2018-07-21T17:19:49.662Z,26.04
2018-07-21T17:22:18.103Z,26.05
2018-07-21T17:24:45.582Z,26.06
2018-07-21T17:27:13.105Z,26.02
2018-07-21T17:29:40.567Z,26.09
2018-07-21T17:32:08.024Z,26.09
2018-07-21T17:34:35.445Z,26.10
2018-07-21T17:37:02.955Z,26.09
2018-07-21T17:39:30.382Z,26.04
2018-07-21T17:41:57.807Z,25.98
2018-07-21T17:44:25.359Z,25.93
2018-07-21T17:46:52.923Z,25.96
2018-07-21T17:49:20.358Z,26.05
2018-07-21T17:51:47.833Z,25.94
2018-07-21T17:54:15.257Z,25.96
2018-07-21T17:56:42.750Z,25.98
2018-07-21T17:59:10.181Z,26.04
2018-07-21T18:01:37.650Z,26.03
2018-07-21T18:04:05.097Z,25.99
2018-07-21T18:06:32.606Z,25.93
2018-07-21T18:09:00.010Z,25.95
2018-07-21T18:11:27.485Z,25.95
2018-07-21T18:13:54.962Z,26.00
2018-07-21T18:16:22.388Z,25.98
2018-07-21T18:18:49.964Z,25.92
2018-07-21T18:21:17.561Z,25.91
2018-07-21T18:23:44.973Z,25.87
2018-07-21T18:26:12.835Z,25.87
2018-07-21T18:28:44.187Z,25.87
2018-07-21T18:31:14.913Z,25.90
2018-07-21T18:33:54.631Z,25.86
2018-07-21T18:36:22.145Z,25.84
2018-07-21T18:38:55.327Z,25.85
2018-07-21T18:41:22.781Z,25.77
2018-07-21T18:43:50.233Z,25.82
2018-07-21T18:46:17.671Z,25.78
2018-07-21T18:48:45.199Z,25.72
2018-07-21T18:51:12.633Z,25.73
2018-07-21T18:53:40.079Z,25.77
2018-07-21T18:56:07.526Z,25.75
2018-07-21T18:58:34.964Z,25.80
2018-07-21T19:01:02.464Z,25.83
2018-07-21T19:03:29.935Z,25.79
2018-07-21T19:05:57.322Z,25.78
2018-07-21T19:08:26.163Z,25.71
2018-07-21T19:10:53.719Z,25.60
2018-07-21T19:13:21.146Z,25.67
2018-07-21T19:15:48.600Z,25.74
2018-07-21T19:18:16.136Z,25.74
2018-07-21T19:20:43.502Z,25.73
2018-07-21T19:23:10.985Z,25.81
2018-07-21T19:25:45.961Z,25.56
2018-07-21T19:28:13.529Z,25.54
2018-07-21T19:30:41.067Z,25.60
2018-07-21T19:33:08.607Z,25.61
2018-07-21T19:35:36.049Z,25.51
2018-07-21T19:38:03.555Z,25.50
2018-07-21T19:40:31.020Z,25.55
2018-07-21T19:42:58.401Z,25.48
2018-07-21T19:45:25.907Z,25.48
2018-07-21T19:47:53.489Z,25.50
2018-07-21T19:50:21.025Z,25.49
2018-07-21T19:52:48.522Z,25.54
2018-07-21T19:55:15.992Z,25.61
2018-07-21T19:57:43.490Z,25.54
2018-07-21T20:00:11.084Z,25.54
2018-07-21T20:02:38.464Z,25.58
2018-07-21T20:05:05.931Z,25.49
2018-07-21T20:07:33.415Z,25.40
2018-07-21T20:10:00.876Z,25.42
2018-07-21T20:12:28.350Z,25.20
2018-07-21T20:14:55.821Z,25.17
2018-07-21T20:17:23.385Z,25.11
2018-07-21T20:19:50.666Z,25.11
2018-07-21T20:22:18.135Z,25.11
2018-07-21T20:24:45.605Z,25.09
2018-07-21T20:27:13.086Z,25.12
2018-07-21T20:29:40.502Z,25.11
2018-07-21T20:32:07.981Z,25.03
2018-07-21T20:34:35.412Z,24.84
2018-07-21T20:37:02.895Z,24.78
2018-07-21T20:39:30.382Z,24.92
2018-07-21T20:41:57.791Z,25.24
2018-07-21T20:44:26.821Z,25.35
2018-07-21T20:46:55.136Z,25.41
2018-07-21T20:49:22.983Z,25.42
2018-07-21T20:51:50.534Z,25.52
2018-07-21T20:54:18.010Z,25.54
2018-07-21T20:56:45.416Z,25.58
2018-07-21T20:59:12.916Z,25.60
2018-07-21T21:01:40.407Z,25.65
2018-07-21T21:04:07.779Z,25.69
2018-07-21T21:06:35.332Z,25.70
2018-07-21T21:09:03.035Z,25.70
2018-07-21T21:11:30.541Z,25.79
2018-07-21T21:13:58.119Z,25.88
2018-07-21T21:16:25.806Z,25.87
2018-07-21T21:18:53.326Z,25.88
2018-07-21T21:21:20.850Z,25.97
2018-07-21T21:23:48.936Z,26.03
2018-07-21T21:26:17.074Z,26.06
2018-07-21T21:28:46.233Z,26.17
2018-07-21T21:31:14.047Z,26.28
2018-07-21T21:33:42.012Z,26.32
2018-07-21T21:36:10.959Z,26.34
2018-07-21T21:38:38.885Z,26.44
2018-07-21T21:41:06.657Z,26.43
2018-07-21T21:43:34.785Z,26.46
2018-07-21T21:46:02.943Z,26.61
2018-07-21T21:48:31.622Z,26.63
2018-07-21T21:50:59.555Z,26.60
2018-07-21T21:53:29.667Z,26.59
2018-07-21T21:55:57.269Z,26.65
2018-07-21T21:58:25.133Z,26.60
2018-07-21T22:00:54.579Z,26.62
2018-07-21T22:03:22.260Z,26.66
2018-07-21T22:05:50.208Z,26.61
2018-07-21T22:08:17.901Z,26.56
2018-07-21T22:10:45.584Z,26.54
2018-07-21T22:13:13.342Z,26.36
2018-07-21T22:15:41.115Z,26.48
2018-07-21T22:18:08.828Z,26.44
2018-07-21T22:20:36.323Z,26.37
2018-07-21T22:23:04.177Z,26.36
2018-07-21T22:25:32.973Z,26.38
2018-07-21T22:28:01.517Z,26.54
2018-07-21T22:30:29.607Z,26.55
2018-07-21T22:32:58.439Z,26.60
2018-07-21T22:35:26.306Z,26.52
2018-07-21T22:37:55.206Z,26.53
2018-07-21T22:40:23.555Z,26.59
2018-07-21T22:42:51.400Z,26.60
2018-07-21T22:45:19.679Z,26.67
2018-07-21T22:47:47.798Z,26.78
2018-07-21T22:50:16.130Z,26.80
2018-07-21T22:52:44.170Z,26.65
2018-07-21T22:55:12.449Z,26.60
2018-07-21T22:57:40.365Z,26.62
2018-07-21T23:00:08.026Z,26.76
2018-07-21T23:02:35.692Z,26.76
2018-07-21T23:05:03.569Z,26.74
2018-07-21T23:07:31.328Z,26.68
2018-07-21T23:09:59.161Z,26.80
2018-07-21T23:12:27.133Z,26.82
2018-07-21T23:14:55.002Z,26.83
2018-07-21T23:17:22.781Z,26.85
2018-07-21T23:19:50.784Z,26.86
2018-07-21T23:22:18.550Z,26.85
2018-07-21T23:24:46.307Z,26.86
2018-07-21T23:27:14.654Z,26.83
2018-07-21T23:29:42.679Z,26.88
2018-07-21T23:32:10.650Z,26.89
2018-07-21T23:34:38.518Z,26.88
2018-07-21T23:37:06.299Z,26.84
2018-07-21T23:39:34.352Z,26.75
2018-07-21T23:42:02.412Z,26.74
2018-07-21T23:44:30.583Z,26.69
2018-07-21T23:46:58.420Z,26.74
2018-07-21T23:49:26.879Z,26.76
2018-07-21T23:51:54.712Z,26.73
2018-07-21T23:54:22.596Z,26.72
2018-07-21T23:56:50.466Z,26.71
2018-07-21T23:59:18.294Z,26.72
